sensor_id;sensor_type;location;lat;lon;timestamp;P1;durP1;ratioP1;P2;durP2;ratioP2
32786;SDS011;19139;49.372;8.580;2022-07-10T00:01:28;4.80;;;4.17;;
32786;SDS011;19139;49.372;8.580;2022-07-10T00:03:54;4.50;;;4.10;;
32786;SDS011;19139;49.372;8.580;2022-07-10T00:06:26;4.40;;;3.97;;
32786;SDS011;19139;49.372;8.580;2022-07-10T00:08:58;4.10;;;3.80;;
32786;SDS011;19139;49.372;8.580;2022-07-10T00:11:24;4.43;;;4.07;;
32786;SDS011;19139;49.372;8.580;2022-07-10T00:13:56;5.03;;;4.63;;
32786;SDS011;19139;49.372;8.580;2022-07-10T00:16:27;4.70;;;4.30;;
32786;SDS011;19139;49.372;8.580;2022-07-10T00:18:55;4.70;;;4.10;;
32786;SDS011;19139;49.372;8.580;2022-07-10T00:21:26;4.13;;;3.83;;
32786;SDS011;19139;49.372;8.580;2022-07-10T00:23:58;4.20;;;3.90;;
32786;SDS011;19139;49.372;8.580;2022-07-10T00:26:24;4.70;;;4.27;;
32786;SDS011;19139;49.372;8.580;2022-07-10T00:28:56;4.20;;;3.90;;
32786;SDS011;19139;49.372;8.580;2022-07-10T00:31:28;4.27;;;3.97;;
32786;SDS011;19139;49.372;8.580;2022-07-10T00:33:55;4.57;;;4.17;;
32786;SDS011;19139;49.372;8.580;2022-07-10T00:36:22;4.30;;;4.00;;
32786;SDS011;19139;49.372;8.580;2022-07-10T00:38:49;4.23;;;3.93;;
32786;SDS011;19139;49.372;8.580;2022-07-10T00:41:16;4.17;;;3.87;;
32786;SDS011;19139;49.372;8.580;2022-07-10T00:43:52;4.37;;;4.00;;
32786;SDS011;19139;49.372;8.580;2022-07-10T00:46:25;4.03;;;3.73;;
32786;SDS011;19139;49.372;8.580;2022-07-10T00:48:57;4.60;;;4.20;;
32786;SDS011;19139;49.372;8.580;2022-07-10T00:51:25;4.73;;;4.33;;
32786;SDS011;19139;49.372;8.580;2022-07-10T00:53:53;4.40;;;4.00;;
32786;SDS011;19139;49.372;8.580;2022-07-10T00:56:26;5.80;;;4.10;;
32786;SDS011;19139;49.372;8.580;2022-07-10T00:58:54;4.70;;;4.00;;
32786;SDS011;19139;49.372;8.580;2022-07-10T01:01:25;4.10;;;3.70;;
32786;SDS011;19139;49.372;8.580;2022-07-10T01:03:57;4.10;;;3.67;;
32786;SDS011;19139;49.372;8.580;2022-07-10T01:06:23;3.97;;;3.60;;
32786;SDS011;19139;49.372;8.580;2022-07-10T01:08:55;4.27;;;3.90;;
32786;SDS011;19139;49.372;8.580;2022-07-10T01:11:27;4.07;;;3.67;;
32786;SDS011;19139;49.372;8.580;2022-07-10T01:13:53;4.23;;;3.80;;
32786;SDS011;19139;49.372;8.580;2022-07-10T01:16:25;3.97;;;3.37;;
32786;SDS011;19139;49.372;8.580;2022-07-10T01:18:57;3.33;;;3.10;;
32786;SDS011;19139;49.372;8.580;2022-07-10T01:21:28;3.40;;;3.20;;
32786;SDS011;19139;49.372;8.580;2022-07-10T01:23:57;3.60;;;3.13;;
32786;SDS011;19139;49.372;8.580;2022-07-10T01:26:25;3.87;;;3.50;;
32786;SDS011;19139;49.372;8.580;2022-07-10T01:28:57;3.63;;;3.27;;
32786;SDS011;19139;49.372;8.580;2022-07-10T01:31:33;3.70;;;3.40;;
32786;SDS011;19139;49.372;8.580;2022-07-10T01:34:00;4.20;;;3.40;;
32786;SDS011;19139;49.372;8.580;2022-07-10T01:36:32;3.30;;;3.00;;
32786;SDS011;19139;49.372;8.580;2022-07-10T01:39:05;3.87;;;3.37;;
32786;SDS011;19139;49.372;8.580;2022-07-10T01:41:37;3.90;;;3.50;;
32786;SDS011;19139;49.372;8.580;2022-07-10T01:44:04;3.47;;;2.83;;
32786;SDS011;19139;49.372;8.580;2022-07-10T01:46:42;3.00;;;2.70;;
32786;SDS011;19139;49.372;8.580;2022-07-10T01:49:14;3.47;;;3.17;;
32786;SDS011;19139;49.372;8.580;2022-07-10T01:51:46;3.00;;;2.70;;
32786;SDS011;19139;49.372;8.580;2022-07-10T01:54:13;3.03;;;2.60;;
32786;SDS011;19139;49.372;8.580;2022-07-10T01:56:44;3.57;;;3.03;;
32786;SDS011;19139;49.372;8.580;2022-07-10T01:59:11;3.43;;;2.80;;
32786;SDS011;19139;49.372;8.580;2022-07-10T02:01:43;2.63;;;2.43;;
32786;SDS011;19139;49.372;8.580;2022-07-10T02:04:14;3.97;;;3.40;;
32786;SDS011;19139;49.372;8.580;2022-07-10T02:07:04;3.87;;;2.80;;
32786;SDS011;19139;49.372;8.580;2022-07-10T02:09:37;2.20;;;2.07;;
32786;SDS011;19139;49.372;8.580;2022-07-10T02:12:05;4.23;;;2.87;;
32786;SDS011;19139;49.372;8.580;2022-07-10T02:14:33;2.67;;;2.47;;
32786;SDS011;19139;49.372;8.580;2022-07-10T02:17:04;2.37;;;2.17;;
32786;SDS011;19139;49.372;8.580;2022-07-10T02:19:31;2.30;;;2.07;;
32786;SDS011;19139;49.372;8.580;2022-07-10T02:22:03;2.57;;;2.37;;
32786;SDS011;19139;49.372;8.580;2022-07-10T02:24:35;3.40;;;2.60;;
32786;SDS011;19139;49.372;8.580;2022-07-10T02:27:06;3.57;;;2.10;;
32786;SDS011;19139;49.372;8.580;2022-07-10T02:29:33;6.00;;;2.27;;
32786;SDS011;19139;49.372;8.580;2022-07-10T02:32:05;3.63;;;2.13;;
32786;SDS011;19139;49.372;8.580;2022-07-10T02:34:37;2.90;;;2.30;;
32786;SDS011;19139;49.372;8.580;2022-07-10T02:37:03;2.20;;;2.00;;
32786;SDS011;19139;49.372;8.580;2022-07-10T02:39:35;2.40;;;2.20;;
32786;SDS011;19139;49.372;8.580;2022-07-10T02:42:07;2.43;;;2.00;;
32786;SDS011;19139;49.372;8.580;2022-07-10T02:44:33;2.93;;;2.37;;
32786;SDS011;19139;49.372;8.580;2022-07-10T02:47:00;1.97;;;1.80;;
32786;SDS011;19139;49.372;8.580;2022-07-10T02:49:31;3.00;;;2.27;;
32786;SDS011;19139;49.372;8.580;2022-07-10T02:52:04;2.43;;;2.13;;
32786;SDS011;19139;49.372;8.580;2022-07-10T02:54:31;3.67;;;2.00;;
32786;SDS011;19139;49.372;8.580;2022-07-10T02:57:02;2.40;;;1.97;;
32786;SDS011;19139;49.372;8.580;2022-07-10T02:59:34;2.33;;;2.13;;
32786;SDS011;19139;49.372;8.580;2022-07-10T03:02:07;2.23;;;1.93;;
32786;SDS011;19139;49.372;8.580;2022-07-10T03:04:33;1.83;;;1.43;;
32786;SDS011;19139;49.372;8.580;2022-07-10T03:07:05;2.40;;;2.20;;
32786;SDS011;19139;49.372;8.580;2022-07-10T03:09:37;2.27;;;1.70;;
32786;SDS011;19139;49.372;8.580;2022-07-10T03:12:04;3.00;;;2.27;;
32786;SDS011;19139;49.372;8.580;2022-07-10T03:14:36;2.60;;;2.03;;
32786;SDS011;19139;49.372;8.580;2022-07-10T03:17:03;2.57;;;1.77;;
32786;SDS011;19139;49.372;8.580;2022-07-10T03:19:35;1.83;;;1.73;;
32786;SDS011;19139;49.372;8.580;2022-07-10T03:22:01;2.60;;;2.00;;
32786;SDS011;19139;49.372;8.580;2022-07-10T03:24:33;2.63;;;1.90;;
32786;SDS011;19139;49.372;8.580;2022-07-10T03:27:04;3.17;;;1.93;;
32786;SDS011;19139;49.372;8.580;2022-07-10T03:29:36;1.87;;;1.77;;
32786;SDS011;19139;49.372;8.580;2022-07-10T03:32:03;3.80;;;1.87;;
32786;SDS011;19139;49.372;8.580;2022-07-10T03:34:35;2.53;;;1.57;;
32786;SDS011;19139;49.372;8.580;2022-07-10T03:37:06;3.30;;;2.20;;
32786;SDS011;19139;49.372;8.580;2022-07-10T03:39:33;3.60;;;2.10;;
32786;SDS011;19139;49.372;8.580;2022-07-10T03:42:05;4.33;;;2.00;;
32786;SDS011;19139;49.372;8.580;2022-07-10T03:44:37;2.37;;;1.87;;
32786;SDS011;19139;49.372;8.580;2022-07-10T03:47:03;2.87;;;1.97;;
32786;SDS011;19139;49.372;8.580;2022-07-10T03:49:35;3.27;;;1.80;;
32786;SDS011;19139;49.372;8.580;2022-07-10T03:52:07;2.23;;;1.60;;
32786;SDS011;19139;49.372;8.580;2022-07-10T03:54:34;1.80;;;1.70;;
32786;SDS011;19139;49.372;8.580;2022-07-10T03:57:05;2.53;;;1.77;;
32786;SDS011;19139;49.372;8.580;2022-07-10T03:59:56;3.20;;;1.80;;
32786;SDS011;19139;49.372;8.580;2022-07-10T04:02:27;2.30;;;1.70;;
32786;SDS011;19139;49.372;8.580;2022-07-10T04:04:54;3.50;;;1.87;;
32786;SDS011;19139;49.372;8.580;2022-07-10T04:07:26;3.47;;;2.20;;
32786;SDS011;19139;49.372;8.580;2022-07-10T04:09:57;2.53;;;1.70;;
32786;SDS011;19139;49.372;8.580;2022-07-10T04:12:24;2.63;;;1.67;;
32786;SDS011;19139;49.372;8.580;2022-07-10T04:14:55;2.23;;;1.77;;
32786;SDS011;19139;49.372;8.580;2022-07-10T04:17:27;2.47;;;1.93;;
32786;SDS011;19139;49.372;8.580;2022-07-10T04:19:55;3.03;;;1.80;;
32786;SDS011;19139;49.372;8.580;2022-07-10T04:22:26;2.40;;;1.80;;
32786;SDS011;19139;49.372;8.580;2022-07-10T04:24:54;2.47;;;1.70;;
32786;SDS011;19139;49.372;8.580;2022-07-10T04:27:25;2.23;;;1.70;;
32786;SDS011;19139;49.372;8.580;2022-07-10T04:29:57;2.87;;;1.90;;
32786;SDS011;19139;49.372;8.580;2022-07-10T04:32:27;2.27;;;1.70;;
32786;SDS011;19139;49.372;8.580;2022-07-10T04:34:54;3.20;;;2.07;;
32786;SDS011;19139;49.372;8.580;2022-07-10T04:37:27;3.03;;;2.13;;
32786;SDS011;19139;49.372;8.580;2022-07-10T04:39:55;2.90;;;2.03;;
32786;SDS011;19139;49.372;8.580;2022-07-10T04:42:26;2.47;;;1.77;;
32786;SDS011;19139;49.372;8.580;2022-07-10T04:44:53;3.63;;;1.73;;
32786;SDS011;19139;49.372;8.580;2022-07-10T04:47:25;4.40;;;2.00;;
32786;SDS011;19139;49.372;8.580;2022-07-10T04:49:56;2.63;;;1.67;;
32786;SDS011;19139;49.372;8.580;2022-07-10T04:52:23;3.03;;;2.27;;
32786;SDS011;19139;49.372;8.580;2022-07-10T04:54:54;1.67;;;1.57;;
32786;SDS011;19139;49.372;8.580;2022-07-10T04:57:21;3.20;;;1.60;;
32786;SDS011;19139;49.372;8.580;2022-07-10T04:59:53;1.87;;;1.70;;
32786;SDS011;19139;49.372;8.580;2022-07-10T05:02:25;3.20;;;1.70;;
32786;SDS011;19139;49.372;8.580;2022-07-10T05:04:57;3.30;;;1.73;;
32786;SDS011;19139;49.372;8.580;2022-07-10T05:07:23;2.63;;;1.70;;
32786;SDS011;19139;49.372;8.580;2022-07-10T05:09:55;2.77;;;1.50;;
32786;SDS011;19139;49.372;8.580;2022-07-10T05:12:27;2.60;;;1.60;;
32786;SDS011;19139;49.372;8.580;2022-07-10T05:14:53;2.00;;;1.57;;
32786;SDS011;19139;49.372;8.580;2022-07-10T05:17:25;5.13;;;2.00;;
32786;SDS011;19139;49.372;8.580;2022-07-10T05:19:54;2.13;;;1.80;;
32786;SDS011;19139;49.372;8.580;2022-07-10T05:22:27;1.57;;;1.43;;
32786;SDS011;19139;49.372;8.580;2022-07-10T05:25:01;2.73;;;2.37;;
32786;SDS011;19139;49.372;8.580;2022-07-10T05:27:33;3.27;;;1.70;;
32786;SDS011;19139;49.372;8.580;2022-07-10T05:30:05;2.73;;;1.63;;
32786;SDS011;19139;49.372;8.580;2022-07-10T05:32:43;1.50;;;1.40;;
32786;SDS011;19139;49.372;8.580;2022-07-10T05:35:15;2.13;;;1.40;;
32786;SDS011;19139;49.372;8.580;2022-07-10T05:37:47;2.97;;;1.70;;
32786;SDS011;19139;49.372;8.580;2022-07-10T05:40:14;5.37;;;1.70;;
32786;SDS011;19139;49.372;8.580;2022-07-10T05:42:45;3.07;;;1.60;;
32786;SDS011;19139;49.372;8.580;2022-07-10T05:45:17;4.07;;;2.07;;
32786;SDS011;19139;49.372;8.580;2022-07-10T05:47:44;1.83;;;1.60;;
32786;SDS011;19139;49.372;8.580;2022-07-10T05:50:16;3.83;;;1.57;;
32786;SDS011;19139;49.372;8.580;2022-07-10T05:52:43;2.73;;;1.60;;
32786;SDS011;19139;49.372;8.580;2022-07-10T05:55:10;7.20;;;1.87;;
32786;SDS011;19139;49.372;8.580;2022-07-10T05:57:37;3.13;;;1.70;;
32786;SDS011;19139;49.372;8.580;2022-07-10T06:00:04;2.43;;;1.60;;
32786;SDS011;19139;49.372;8.580;2022-07-10T06:02:37;2.93;;;1.90;;
32786;SDS011;19139;49.372;8.580;2022-07-10T06:05:04;2.70;;;1.63;;
32786;SDS011;19139;49.372;8.580;2022-07-10T06:07:36;4.33;;;1.67;;
32786;SDS011;19139;49.372;8.580;2022-07-10T06:10:03;3.93;;;1.50;;
32786;SDS011;19139;49.372;8.580;2022-07-10T06:12:36;2.10;;;1.67;;
32786;SDS011;19139;49.372;8.580;2022-07-10T06:15:03;2.80;;;1.37;;
32786;SDS011;19139;49.372;8.580;2022-07-10T06:17:35;1.90;;;1.30;;
32786;SDS011;19139;49.372;8.580;2022-07-10T06:20:07;3.10;;;1.30;;
32786;SDS011;19139;49.372;8.580;2022-07-10T06:22:34;3.63;;;1.30;;
32786;SDS011;19139;49.372;8.580;2022-07-10T06:25:06;1.77;;;1.20;;
32786;SDS011;19139;49.372;8.580;2022-07-10T06:27:34;2.87;;;1.30;;
32786;SDS011;19139;49.372;8.580;2022-07-10T06:30:02;3.33;;;1.63;;
32786;SDS011;19139;49.372;8.580;2022-07-10T06:32:34;2.97;;;1.70;;
32786;SDS011;19139;49.372;8.580;2022-07-10T06:35:05;3.67;;;1.70;;
32786;SDS011;19139;49.372;8.580;2022-07-10T06:37:33;2.10;;;1.47;;
32786;SDS011;19139;49.372;8.580;2022-07-10T06:40:05;2.77;;;1.60;;
32786;SDS011;19139;49.372;8.580;2022-07-10T06:42:37;2.83;;;1.70;;
32786;SDS011;19139;49.372;8.580;2022-07-10T06:45:09;2.57;;;1.50;;
32786;SDS011;19139;49.372;8.580;2022-07-10T06:47:37;1.97;;;1.30;;
32786;SDS011;19139;49.372;8.580;2022-07-10T06:50:30;2.23;;;1.40;;
32786;SDS011;19139;49.372;8.580;2022-07-10T06:52:57;2.73;;;2.27;;
32786;SDS011;19139;49.372;8.580;2022-07-10T06:55:25;3.43;;;1.50;;
32786;SDS011;19139;49.372;8.580;2022-07-10T06:57:57;3.60;;;1.37;;
32786;SDS011;19139;49.372;8.580;2022-07-10T07:00:24;3.50;;;1.57;;
32786;SDS011;19139;49.372;8.580;2022-07-10T07:02:57;2.27;;;1.30;;
32786;SDS011;19139;49.372;8.580;2022-07-10T07:05:23;1.97;;;1.70;;
32786;SDS011;19139;49.372;8.580;2022-07-10T07:07:55;2.97;;;1.60;;
32786;SDS011;19139;49.372;8.580;2022-07-10T07:10:26;2.47;;;1.10;;
32786;SDS011;19139;49.372;8.580;2022-07-10T07:12:53;3.20;;;1.60;;
32786;SDS011;19139;49.372;8.580;2022-07-10T07:15:25;3.37;;;1.80;;
32786;SDS011;19139;49.372;8.580;2022-07-10T07:17:57;3.77;;;1.60;;
32786;SDS011;19139;49.372;8.580;2022-07-10T07:20:34;4.10;;;1.53;;
32786;SDS011;19139;49.372;8.580;2022-07-10T07:23:20;4.00;;;1.30;;
32786;SDS011;19139;49.372;8.580;2022-07-10T07:25:48;3.53;;;1.30;;
32786;SDS011;19139;49.372;8.580;2022-07-10T07:28:15;3.03;;;1.33;;
32786;SDS011;19139;49.372;8.580;2022-07-10T07:30:43;2.73;;;0.93;;
32786;SDS011;19139;49.372;8.580;2022-07-10T07:33:15;2.43;;;1.10;;
32786;SDS011;19139;49.372;8.580;2022-07-10T07:35:47;2.27;;;1.10;;
32786;SDS011;19139;49.372;8.580;2022-07-10T07:38:14;3.07;;;1.10;;
32786;SDS011;19139;49.372;8.580;2022-07-10T07:40:46;2.30;;;1.23;;
32786;SDS011;19139;49.372;8.580;2022-07-10T07:43:13;3.07;;;1.07;;
32786;SDS011;19139;49.372;8.580;2022-07-10T07:45:45;2.87;;;1.00;;
32786;SDS011;19139;49.372;8.580;2022-07-10T07:48:16;1.90;;;1.10;;
32786;SDS011;19139;49.372;8.580;2022-07-10T07:50:43;3.83;;;0.93;;
32786;SDS011;19139;49.372;8.580;2022-07-10T07:53:15;2.40;;;0.83;;
32786;SDS011;19139;49.372;8.580;2022-07-10T07:55:46;1.77;;;1.10;;
32786;SDS011;19139;49.372;8.580;2022-07-10T07:58:13;1.70;;;0.90;;
32786;SDS011;19139;49.372;8.580;2022-07-10T08:00:45;3.13;;;0.93;;
32786;SDS011;19139;49.372;8.580;2022-07-10T08:03:16;2.40;;;0.80;;
32786;SDS011;19139;49.372;8.580;2022-07-10T08:23:25;3.23;;;0.93;;
32786;SDS011;19139;49.372;8.580;2022-07-10T08:25:52;2.50;;;0.73;;
32786;SDS011;19139;49.372;8.580;2022-07-10T08:28:18;2.67;;;0.80;;
32786;SDS011;19139;49.372;8.580;2022-07-10T08:30:49;1.80;;;0.70;;
32786;SDS011;19139;49.372;8.580;2022-07-10T08:33:16;2.67;;;1.33;;
32786;SDS011;19139;49.372;8.580;2022-07-10T08:35:47;1.13;;;0.93;;
32786;SDS011;19139;49.372;8.580;2022-07-10T08:38:14;2.10;;;0.87;;
32786;SDS011;19139;49.372;8.580;2022-07-10T08:40:41;1.53;;;0.90;;
32786;SDS011;19139;49.372;8.580;2022-07-10T08:43:09;1.83;;;1.17;;
32786;SDS011;19139;49.372;8.580;2022-07-10T08:45:35;1.93;;;0.80;;
32786;SDS011;19139;49.372;8.580;2022-07-10T08:48:07;0.90;;;0.70;;
32786;SDS011;19139;49.372;8.580;2022-07-10T08:50:37;1.73;;;0.90;;
32786;SDS011;19139;49.372;8.580;2022-07-10T08:53:15;2.33;;;1.00;;
32786;SDS011;19139;49.372;8.580;2022-07-10T08:55:53;1.57;;;0.70;;
32786;SDS011;19139;49.372;8.580;2022-07-10T08:58:26;1.47;;;0.80;;
32786;SDS011;19139;49.372;8.580;2022-07-10T09:00:53;1.43;;;0.73;;
32786;SDS011;19139;49.372;8.580;2022-07-10T09:03:20;3.13;;;1.00;;
32786;SDS011;19139;49.372;8.580;2022-07-10T09:05:46;2.00;;;0.73;;
32786;SDS011;19139;49.372;8.580;2022-07-10T09:08:23;1.67;;;0.90;;
32786;SDS011;19139;49.372;8.580;2022-07-10T09:11:12;1.10;;;0.93;;
32786;SDS011;19139;49.372;8.580;2022-07-10T09:13:50;1.63;;;0.83;;
32786;SDS011;19139;49.372;8.580;2022-07-10T09:16:29;1.73;;;1.00;;
32786;SDS011;19139;49.372;8.580;2022-07-10T09:19:14;1.73;;;0.80;;
32786;SDS011;19139;49.372;8.580;2022-07-10T09:21:46;1.63;;;0.93;;
32786;SDS011;19139;49.372;8.580;2022-07-10T09:24:14;2.70;;;1.27;;
32786;SDS011;19139;49.372;8.580;2022-07-10T09:26:58;1.73;;;0.90;;
32786;SDS011;19139;49.372;8.580;2022-07-10T09:29:44;1.50;;;0.70;;
32786;SDS011;19139;49.372;8.580;2022-07-10T09:32:13;1.50;;;0.90;;
32786;SDS011;19139;49.372;8.580;2022-07-10T09:34:50;1.33;;;0.70;;
32786;SDS011;19139;49.372;8.580;2022-07-10T09:37:38;1.57;;;0.80;;
32786;SDS011;19139;49.372;8.580;2022-07-10T09:40:07;1.70;;;0.70;;
32786;SDS011;19139;49.372;8.580;2022-07-10T09:50:26;1.80;;;1.07;;
32786;SDS011;19139;49.372;8.580;2022-07-10T09:52:55;2.70;;;1.17;;
32786;SDS011;19139;49.372;8.580;2022-07-10T09:55:25;1.10;;;0.50;;
32786;SDS011;19139;49.372;8.580;2022-07-10T09:57:54;4.03;;;1.03;;
32786;SDS011;19139;49.372;8.580;2022-07-10T10:00:28;1.60;;;0.70;;
32786;SDS011;19139;49.372;8.580;2022-07-10T10:02:57;1.63;;;0.60;;
32786;SDS011;19139;49.372;8.580;2022-07-10T10:05:27;2.67;;;0.70;;
32786;SDS011;19139;49.372;8.580;2022-07-10T10:08:00;2.00;;;0.57;;
32786;SDS011;19139;49.372;8.580;2022-07-10T10:10:37;0.63;;;0.60;;
32786;SDS011;19139;49.372;8.580;2022-07-10T10:13:18;0.80;;;0.50;;
32786;SDS011;19139;49.372;8.580;2022-07-10T10:15:47;1.37;;;0.80;;
32786;SDS011;19139;49.372;8.580;2022-07-10T10:18:18;1.70;;;0.63;;
32786;SDS011;19139;49.372;8.580;2022-07-10T10:20:54;3.87;;;1.00;;
32786;SDS011;19139;49.372;8.580;2022-07-10T10:23:26;1.20;;;0.87;;
32786;SDS011;19139;49.372;8.580;2022-07-10T10:25:55;1.93;;;0.90;;
32786;SDS011;19139;49.372;8.580;2022-07-10T10:28:27;1.70;;;0.67;;
32786;SDS011;19139;49.372;8.580;2022-07-10T10:30:55;1.53;;;1.17;;
32786;SDS011;19139;49.372;8.580;2022-07-10T10:36:09;1.73;;;0.70;;
32786;SDS011;19139;49.372;8.580;2022-07-10T10:49:17;2.00;;;0.73;;
32786;SDS011;19139;49.372;8.580;2022-07-10T10:54:25;1.53;;;0.70;;
32786;SDS011;19139;49.372;8.580;2022-07-10T10:59:50;1.80;;;0.70;;
32786;SDS011;19139;49.372;8.580;2022-07-10T11:08:00;0.93;;;0.60;;
32786;SDS011;19139;49.372;8.580;2022-07-10T11:10:38;1.37;;;0.90;;
32786;SDS011;19139;49.372;8.580;2022-07-10T11:13:17;1.60;;;0.73;;
32786;SDS011;19139;49.372;8.580;2022-07-10T11:15:48;1.43;;;0.70;;
32786;SDS011;19139;49.372;8.580;2022-07-10T11:18:19;0.73;;;0.40;;
32786;SDS011;19139;49.372;8.580;2022-07-10T11:20:55;2.03;;;0.70;;
32786;SDS011;19139;49.372;8.580;2022-07-10T11:26:21;1.10;;;1.00;;
32786;SDS011;19139;49.372;8.580;2022-07-10T11:28:57;2.00;;;0.70;;
32786;SDS011;19139;49.372;8.580;2022-07-10T11:31:26;1.03;;;0.67;;
32786;SDS011;19139;49.372;8.580;2022-07-10T11:33:54;1.13;;;0.50;;
32786;SDS011;19139;49.372;8.580;2022-07-10T11:36:27;1.77;;;0.80;;
32786;SDS011;19139;49.372;8.580;2022-07-10T11:39:05;1.60;;;0.60;;
32786;SDS011;19139;49.372;8.580;2022-07-10T11:41:34;1.57;;;0.70;;
32786;SDS011;19139;49.372;8.580;2022-07-10T11:44:14;0.90;;;0.57;;
32786;SDS011;19139;49.372;8.580;2022-07-10T11:46:47;0.97;;;0.60;;
32786;SDS011;19139;49.372;8.580;2022-07-10T11:49:16;0.80;;;0.70;;
32786;SDS011;19139;49.372;8.580;2022-07-10T11:51:43;1.17;;;0.57;;
32786;SDS011;19139;49.372;8.580;2022-07-10T11:54:16;0.90;;;0.43;;
32786;SDS011;19139;49.372;8.580;2022-07-10T11:56:48;1.50;;;0.60;;
32786;SDS011;19139;49.372;8.580;2022-07-10T11:59:18;2.07;;;0.70;;
32786;SDS011;19139;49.372;8.580;2022-07-10T12:01:55;1.40;;;0.60;;
32786;SDS011;19139;49.372;8.580;2022-07-10T12:04:22;2.00;;;0.90;;
32786;SDS011;19139;49.372;8.580;2022-07-10T12:06:56;2.50;;;0.80;;
32786;SDS011;19139;49.372;8.580;2022-07-10T12:09:27;1.93;;;1.10;;
32786;SDS011;19139;49.372;8.580;2022-07-10T12:11:57;0.90;;;0.60;;
32786;SDS011;19139;49.372;8.580;2022-07-10T12:14:25;0.93;;;0.63;;
32786;SDS011;19139;49.372;8.580;2022-07-10T12:16:57;1.73;;;0.77;;
32786;SDS011;19139;49.372;8.580;2022-07-10T12:19:25;1.43;;;0.63;;
32786;SDS011;19139;49.372;8.580;2022-07-10T12:22:04;1.07;;;0.57;;
32786;SDS011;19139;49.372;8.580;2022-07-10T12:24:36;1.27;;;0.60;;
32786;SDS011;19139;49.372;8.580;2022-07-10T12:27:03;1.77;;;0.57;;
32786;SDS011;19139;49.372;8.580;2022-07-10T12:29:35;2.03;;;0.63;;
32786;SDS011;19139;49.372;8.580;2022-07-10T12:32:07;1.03;;;0.57;;
32786;SDS011;19139;49.372;8.580;2022-07-10T12:34:35;1.00;;;0.63;;
32786;SDS011;19139;49.372;8.580;2022-07-10T12:37:12;1.00;;;0.50;;
32786;SDS011;19139;49.372;8.580;2022-07-10T12:39:47;2.00;;;0.70;;
32786;SDS011;19139;49.372;8.580;2022-07-10T12:42:26;3.20;;;0.70;;
32786;SDS011;19139;49.372;8.580;2022-07-10T12:45:12;1.90;;;0.90;;
32786;SDS011;19139;49.372;8.580;2022-07-10T12:47:47;1.50;;;0.70;;
32786;SDS011;19139;49.372;8.580;2022-07-10T12:50:15;2.10;;;0.80;;
32786;SDS011;19139;49.372;8.580;2022-07-10T12:52:43;1.20;;;0.80;;
32786;SDS011;19139;49.372;8.580;2022-07-10T12:55:14;1.27;;;0.90;;
32786;SDS011;19139;49.372;8.580;2022-07-10T13:00:18;0.83;;;0.70;;
32786;SDS011;19139;49.372;8.580;2022-07-10T13:02:59;1.50;;;0.90;;
32786;SDS011;19139;49.372;8.580;2022-07-10T13:05:35;1.53;;;0.97;;
32786;SDS011;19139;49.372;8.580;2022-07-10T13:08:17;1.53;;;1.10;;
32786;SDS011;19139;49.372;8.580;2022-07-10T13:10:53;2.43;;;0.93;;
32786;SDS011;19139;49.372;8.580;2022-07-10T13:13:29;1.83;;;0.97;;
32786;SDS011;19139;49.372;8.580;2022-07-10T13:16:01;1.93;;;1.10;;
32786;SDS011;19139;49.372;8.580;2022-07-10T13:18:32;1.53;;;0.77;;
32786;SDS011;19139;49.372;8.580;2022-07-10T13:21:04;2.17;;;1.13;;
32786;SDS011;19139;49.372;8.580;2022-07-10T13:23:36;2.87;;;1.10;;
32786;SDS011;19139;49.372;8.580;2022-07-10T13:26:03;1.20;;;0.87;;
32786;SDS011;19139;49.372;8.580;2022-07-10T13:28:37;3.37;;;1.13;;
32786;SDS011;19139;49.372;8.580;2022-07-10T13:31:09;2.87;;;1.10;;
32786;SDS011;19139;49.372;8.580;2022-07-10T13:33:40;2.80;;;1.20;;
32786;SDS011;19139;49.372;8.580;2022-07-10T13:36:12;2.43;;;1.50;;
32786;SDS011;19139;49.372;8.580;2022-07-10T13:38:44;2.20;;;1.13;;
32786;SDS011;19139;49.372;8.580;2022-07-10T13:41:13;3.13;;;1.27;;
32786;SDS011;19139;49.372;8.580;2022-07-10T13:43:44;2.10;;;1.10;;
32786;SDS011;19139;49.372;8.580;2022-07-10T13:46:16;2.23;;;1.10;;
32786;SDS011;19139;49.372;8.580;2022-07-10T13:48:47;2.03;;;1.07;;
32786;SDS011;19139;49.372;8.580;2022-07-10T13:51:19;1.63;;;1.13;;
32786;SDS011;19139;49.372;8.580;2022-07-10T13:53:50;3.33;;;1.20;;
32786;SDS011;19139;49.372;8.580;2022-07-10T13:56:22;3.00;;;1.37;;
32786;SDS011;19139;49.372;8.580;2022-07-10T13:58:54;3.63;;;1.40;;
32786;SDS011;19139;49.372;8.580;2022-07-10T14:01:26;3.10;;;1.20;;
32786;SDS011;19139;49.372;8.580;2022-07-10T14:03:57;2.77;;;0.97;;
32786;SDS011;19139;49.372;8.580;2022-07-10T14:06:29;2.27;;;1.10;;
32786;SDS011;19139;49.372;8.580;2022-07-10T14:09:00;3.03;;;1.20;;
32786;SDS011;19139;49.372;8.580;2022-07-10T14:11:32;1.80;;;0.93;;
32786;SDS011;19139;49.372;8.580;2022-07-10T14:14:04;3.07;;;1.10;;
32786;SDS011;19139;49.372;8.580;2022-07-10T14:16:35;3.07;;;1.30;;
32786;SDS011;19139;49.372;8.580;2022-07-10T14:19:07;2.83;;;1.13;;
32786;SDS011;19139;49.372;8.580;2022-07-10T14:21:37;3.27;;;1.27;;
32786;SDS011;19139;49.372;8.580;2022-07-10T14:24:11;2.37;;;1.07;;
32786;SDS011;19139;49.372;8.580;2022-07-10T14:26:42;2.57;;;1.40;;
32786;SDS011;19139;49.372;8.580;2022-07-10T14:29:14;2.20;;;1.50;;
32786;SDS011;19139;49.372;8.580;2022-07-10T14:31:45;3.13;;;1.20;;
32786;SDS011;19139;49.372;8.580;2022-07-10T14:34:19;2.27;;;1.37;;
32786;SDS011;19139;49.372;8.580;2022-07-10T14:36:55;1.90;;;1.20;;
32786;SDS011;19139;49.372;8.580;2022-07-10T14:39:27;2.23;;;1.23;;
32786;SDS011;19139;49.372;8.580;2022-07-10T14:41:53;3.07;;;0.90;;
32786;SDS011;19139;49.372;8.580;2022-07-10T14:44:25;3.27;;;1.27;;
32786;SDS011;19139;49.372;8.580;2022-07-10T14:46:56;2.37;;;1.13;;
32786;SDS011;19139;49.372;8.580;2022-07-10T14:49:23;2.67;;;1.43;;
32786;SDS011;19139;49.372;8.580;2022-07-10T14:51:49;1.90;;;1.20;;
32786;SDS011;19139;49.372;8.580;2022-07-10T14:54:16;1.47;;;0.90;;
32786;SDS011;19139;49.372;8.580;2022-07-10T14:56:43;3.57;;;1.53;;
32786;SDS011;19139;49.372;8.580;2022-07-10T14:59:15;1.83;;;1.03;;
32786;SDS011;19139;49.372;8.580;2022-07-10T15:01:42;3.93;;;1.23;;
32786;SDS011;19139;49.372;8.580;2022-07-10T15:04:09;2.53;;;1.07;;
32786;SDS011;19139;49.372;8.580;2022-07-10T15:06:35;2.57;;;1.20;;
32786;SDS011;19139;49.372;8.580;2022-07-10T15:09:07;2.20;;;1.00;;
32786;SDS011;19139;49.372;8.580;2022-07-10T15:11:33;2.07;;;1.00;;
32786;SDS011;19139;49.372;8.580;2022-07-10T15:14:06;2.80;;;1.00;;
32786;SDS011;19139;49.372;8.580;2022-07-10T15:16:33;2.23;;;1.10;;
32786;SDS011;19139;49.372;8.580;2022-07-10T15:19:05;2.27;;;1.00;;
32786;SDS011;19139;49.372;8.580;2022-07-10T15:21:37;2.37;;;1.30;;
32786;SDS011;19139;49.372;8.580;2022-07-10T15:24:04;1.80;;;1.00;;
32786;SDS011;19139;49.372;8.580;2022-07-10T15:26:36;3.00;;;1.23;;
32786;SDS011;19139;49.372;8.580;2022-07-10T15:29:07;1.67;;;0.87;;
32786;SDS011;19139;49.372;8.580;2022-07-10T15:31:34;1.07;;;0.97;;
32786;SDS011;19139;49.372;8.580;2022-07-10T15:34:06;1.30;;;0.73;;
32786;SDS011;19139;49.372;8.580;2022-07-10T15:36:35;2.53;;;1.20;;
32786;SDS011;19139;49.372;8.580;2022-07-10T15:39:07;2.30;;;1.27;;
32786;SDS011;19139;49.372;8.580;2022-07-10T15:41:34;2.40;;;1.17;;
32786;SDS011;19139;49.372;8.580;2022-07-10T15:44:05;2.53;;;1.10;;
32786;SDS011;19139;49.372;8.580;2022-07-10T15:46:37;1.87;;;0.90;;
32786;SDS011;19139;49.372;8.580;2022-07-10T15:49:04;1.53;;;0.80;;
32786;SDS011;19139;49.372;8.580;2022-07-10T15:51:36;2.77;;;1.47;;
32786;SDS011;19139;49.372;8.580;2022-07-10T15:54:04;2.83;;;1.40;;
32786;SDS011;19139;49.372;8.580;2022-07-10T15:56:35;1.53;;;1.10;;
32786;SDS011;19139;49.372;8.580;2022-07-10T15:59:07;2.00;;;0.93;;
32786;SDS011;19139;49.372;8.580;2022-07-10T16:01:34;1.90;;;1.20;;
32786;SDS011;19139;49.372;8.580;2022-07-10T16:04:06;2.83;;;0.87;;
32786;SDS011;19139;49.372;8.580;2022-07-10T16:06:37;1.70;;;1.27;;